.
WxDataArchive / Data Records for 2013-05-16
2013-05-15 May 2013 2013-05-17

Data Records for Thursday, 16 May 2013

Time	Temp	Chill	HIndex	Humid	Dewpt	 Wind 	HiWind	WindDir	Rain 	Barom 
-----	----	-----	------	-----	-----	------	------	-------	-----	----- 
00:00	65.6	65.6	65.6	74	57.1	0	0	---	0.00	29.776 
00:05	65.3	65.3	65.3	70	55.3	0	0	---	0.00	29.776 
00:10	65.3	65.3	65.3	66	53.6	0	0	---	0.00	29.776 
00:15	65.6	65.6	65.6	61	51.8	0	1	292	0.00	29.781 
00:20	66.1	66.1	66.1	58	50.9	0	1	292	0.00	29.781 
00:25	66.4	66.4	66.4	58	51.2	0	1	292	0.00	29.781 
00:30	66.6	66.6	66.6	58	51.4	0	0	---	0.00	29.779 
00:35	66.4	66.4	66.4	57	50.7	0	0	---	0.00	29.779 
00:40	66.3	66.3	66.3	57	50.6	0	0	---	0.00	29.779 
00:45	66.1	66.1	66.1	57	50.4	0	1	292	0.00	29.781 
00:50	66.1	66.1	66.1	57	50.4	0	0	---	0.00	29.781 
00:55	66.0	66.0	66.0	57	50.3	0	0	---	0.00	29.781 
01:00	65.8	65.8	65.8	58	50.6	0	0	---	0.00	29.784 
01:05	65.3	65.3	65.3	58	50.1	0	0	---	0.00	29.784 
01:10	65.0	65.0	65.0	59	50.3	0	0	---	0.00	29.784 
01:15	64.7	64.7	64.7	58	49.6	0	0	---	0.00	29.783 
01:20	64.5	64.5	64.5	59	49.8	0	0	---	0.00	29.783 
01:25	64.2	64.2	64.2	59	49.6	0	0	---	0.00	29.783 
01:30	63.9	63.9	63.9	60	49.7	0	0	---	0.00	29.790 
01:35	63.7	63.7	63.7	62	50.4	0	0	---	0.00	29.790 
01:40	63.2	63.2	63.2	65	51.2	0	0	---	0.00	29.790 
01:45	62.9	62.9	62.9	67	51.8	0	0	---	0.00	29.794 
01:50	62.6	62.6	62.6	69	52.3	0	0	---	0.00	29.794 
01:55	62.3	62.3	62.3	71	52.8	0	0	---	0.00	29.794 
02:00	62.0	62.0	62.0	72	52.9	0	0	---	0.00	29.797 
02:05	61.5	61.5	61.5	73	52.8	0	0	---	0.00	29.797 
02:10	61.2	61.2	61.2	74	52.8	0	0	---	0.00	29.797 
02:15	61.0	61.0	61.0	74	52.6	0	0	---	0.00	29.803 
02:20	60.9	60.9	60.9	74	52.6	0	0	---	0.00	29.803 
02:25	60.9	60.9	60.9	74	52.6	0	0	---	0.00	29.803 
02:30	60.7	60.7	60.7	75	52.7	0	0	---	0.00	29.809 
02:35	60.9	60.9	60.9	76	53.3	0	0	---	0.00	29.809 
02:40	60.9	60.9	60.9	76	53.3	0	0	---	0.00	29.809 
02:45	60.9	60.9	60.9	77	53.6	0	0	---	0.00	29.820 
02:50	61.0	61.0	61.0	77	53.7	0	0	---	0.00	29.820 
02:55	61.0	61.0	61.0	78	54.1	0	0	---	0.00	29.820 
03:00	61.0	61.0	61.0	78	54.1	0	0	---	0.00	29.823 
03:05	60.9	60.9	60.9	79	54.3	0	0	---	0.00	29.823 
03:10	60.9	60.9	60.9	79	54.3	0	0	---	0.00	29.823 
03:15	60.7	60.7	60.7	79	54.1	0	0	---	0.00	29.825 
03:20	60.5	60.5	60.5	79	54.0	0	0	---	0.00	29.825 
03:25	60.4	60.4	60.4	80	54.2	0	0	---	0.00	29.825 
03:30	60.4	60.4	60.4	80	54.2	0	0	---	0.00	29.830 
03:35	60.2	60.2	60.2	80	54.0	0	0	---	0.00	29.830 
03:40	60.1	60.1	60.1	80	53.9	0	0	---	0.00	29.830 
03:45	59.9	59.9	59.9	81	54.1	0	0	---	0.00	29.828 
03:50	59.6	59.6	59.6	81	53.8	0	0	---	0.00	29.828 
03:55	59.3	59.3	59.3	82	53.8	0	0	---	0.00	29.828 
04:00	59.2	59.2	59.2	83	54.0	0	0	---	0.00	29.826 
04:05	58.9	58.9	58.9	83	53.7	0	0	---	0.00	29.826 
04:10	58.7	58.7	58.7	83	53.5	0	0	---	0.00	29.826 
04:15	58.4	58.4	58.4	83	53.3	0	0	---	0.00	29.826 
04:20	58.1	58.1	58.1	84	53.3	0	0	---	0.00	29.826 
04:25	57.8	57.8	57.8	84	53.0	0	0	---	0.00	29.826 
04:30	57.5	57.5	57.5	84	52.7	0	0	---	0.00	29.830 
04:35	57.0	57.0	57.0	84	52.2	0	0	---	0.00	29.830 
04:40	56.7	56.7	56.7	84	51.9	0	0	---	0.00	29.830 
04:45	56.6	56.6	56.6	85	52.1	0	0	---	0.00	29.829 
04:50	56.3	56.3	56.3	85	51.8	0	0	---	0.00	29.829 
04:55	56.2	56.2	56.2	85	51.7	0	0	---	0.00	29.829 
05:00	55.9	55.9	55.9	86	51.8	0	0	---	0.00	29.829 
05:05	55.7	55.7	55.7	86	51.6	0	0	---	0.00	29.829 
05:10	55.4	55.4	55.4	87	51.6	0	0	---	0.00	29.829 
05:15	55.3	55.3	55.3	87	51.5	0	0	---	0.00	29.822 
05:20	55.1	55.1	55.1	87	51.3	0	0	---	0.00	29.822 
05:25	55.0	55.0	55.0	87	51.2	0	0	---	0.00	29.822 
05:30	54.7	54.7	54.7	87	50.9	0	0	---	0.00	29.821 
05:35	54.5	54.5	54.5	87	50.7	0	0	---	0.00	29.821 
05:40	54.4	54.4	54.4	87	50.6	0	0	---	0.00	29.821 
05:45	54.2	54.2	54.2	88	50.7	0	0	---	0.00	29.821 
05:50	54.1	54.1	54.1	88	50.6	0	0	---	0.00	29.821 
05:55	53.9	53.9	53.9	88	50.4	0	0	---	0.00	29.821 
06:00	53.8	53.8	53.8	88	50.3	0	0	---	0.00	29.830 
06:05	53.8	53.8	53.8	88	50.3	0	0	---	0.00	29.830 
06:10	53.6	53.6	53.6	88	50.1	0	0	---	0.00	29.830 
06:15	53.5	53.5	53.5	88	50.0	0	0	---	0.00	29.831 
06:20	53.3	53.3	53.3	88	49.8	0	0	---	0.00	29.831 
06:25	53.2	53.2	53.2	88	49.7	0	0	---	0.00	29.831 
06:30	53.2	53.2	53.2	88	49.7	0	0	---	0.00	29.834 
06:35	53.1	53.1	53.1	88	49.6	0	0	---	0.00	29.834 
06:40	53.1	53.1	53.1	88	49.6	0	0	---	0.00	29.834 
06:45	53.1	53.1	53.1	88	49.6	0	0	---	0.00	29.836 
06:50	53.1	53.1	53.1	88	49.6	0	0	---	0.00	29.836 
06:55	53.1	53.1	53.1	88	49.6	0	0	---	0.00	29.836 
07:00	53.2	53.2	53.2	88	49.7	0	0	---	0.00	29.844 
07:05	53.3	53.3	53.3	88	49.8	0	0	---	0.00	29.844 
07:10	53.6	53.6	53.6	88	50.1	0	0	---	0.00	29.844 
07:15	53.9	53.9	53.9	88	50.4	0	0	---	0.00	29.858 
07:20	54.4	54.4	54.4	88	50.9	0	0	---	0.00	29.858 
07:25	54.7	54.7	54.7	88	51.2	0	0	---	0.00	29.858 
07:30	55.3	55.3	55.3	88	51.8	0	0	---	0.00	29.866 
07:35	56.0	56.0	56.0	88	52.5	0	0	---	0.00	29.866 
07:40	56.9	56.9	56.9	87	53.1	0	0	---	0.00	29.866 
07:45	58.0	58.0	58.0	85	53.5	0	0	---	0.00	29.870 
07:50	59.2	59.2	59.2	81	53.4	0	0	---	0.00	29.870 
07:55	60.7	60.7	60.7	75	52.7	0	0	---	0.00	29.870 
08:00	62.3	62.3	62.3	72	53.2	0	0	---	0.00	29.874 
08:05	63.2	63.2	63.2	69	52.9	0	0	---	0.00	29.874 
08:10	63.9	63.9	63.9	67	52.7	0	0	---	0.00	29.874 
08:15	64.3	64.3	64.3	64	51.9	0	0	---	0.00	29.877 
08:20	64.7	64.7	64.7	60	50.5	0	0	---	0.00	29.877 
08:25	65.2	65.2	65.2	60	51.0	0	0	---	0.00	29.877 
08:30	65.5	65.5	65.5	58	50.3	0	0	---	0.00	29.877 
08:35	66.0	66.0	66.0	57	50.3	0	0	---	0.00	29.877 
08:40	66.6	66.6	66.6	56	50.4	0	0	---	0.00	29.877 
08:45	67.3	67.3	67.3	56	51.1	0	0	---	0.00	29.877 
08:50	67.8	67.8	67.8	54	50.5	0	0	---	0.00	29.877 
08:55	68.1	68.1	68.1	53	50.3	0	0	---	0.00	29.877 
09:00	68.6	68.6	68.6	52	50.3	0	0	---	0.00	29.879 
09:05	68.8	68.8	68.8	48	48.3	0	0	---	0.00	29.879 
09:10	68.8	68.8	68.8	48	48.3	0	0	---	0.00	29.879 
09:15	69.4	69.4	69.4	48	48.8	0	1	292	0.00	29.886 
09:20	70.3	70.3	70.3	47	49.1	0	1	292	0.00	29.886 
09:25	70.4	70.4	70.4	45	48.0	0	1	292	0.00	29.886 
09:30	70.4	70.4	70.4	45	48.0	0	0	---	0.00	29.893 
09:35	70.4	70.4	70.4	43	46.8	0	1	292	0.00	29.893 
09:40	70.1	70.1	70.1	43	46.6	0	0	---	0.00	29.893 
09:45	70.3	70.3	70.3	46	48.5	0	0	---	0.00	29.894 
09:50	70.1	70.1	70.1	45	47.8	0	0	---	0.00	29.894 
09:55	69.9	69.9	69.9	44	47.0	0	1	292	0.00	29.894 
10:00	70.4	70.4	70.4	45	48.0	0	2	292	0.00	29.894 
10:05	70.9	70.9	70.9	46	49.1	0	1	292	0.00	29.894 
10:10	71.3	71.3	71.3	43	47.6	0	1	292	0.00	29.894 
10:15	71.5	71.5	71.5	43	47.8	0	1	292	0.00	29.897 
10:20	71.8	71.8	71.8	45	49.3	0	1	292	0.00	29.897 
10:25	71.6	71.6	71.6	41	46.6	0	1	292	0.00	29.897 
10:30	71.8	71.8	71.8	39	45.5	0	1	292	0.00	29.903 
10:35	71.8	71.8	71.8	39	45.5	0	1	292	0.00	29.903 
10:40	72.1	72.1	72.1	39	45.8	0	1	292	0.00	29.903 
10:45	72.3	72.3	72.3	39	45.9	0	1	292	0.00	29.908 
10:50	72.5	72.5	72.5	39	46.1	0	1	292	0.00	29.908 
10:55	72.5	72.5	72.5	39	46.1	0	2	292	0.00	29.908 
11:00	72.7	72.7	72.7	41	47.6	0	1	292	0.00	29.906 
11:05	72.5	72.5	72.5	40	46.8	0	2	292	0.00	29.906 
11:10	72.7	72.7	72.7	43	48.9	0	1	292	0.00	29.906 
11:15	72.7	72.7	72.7	41	47.6	0	0	---	0.00	29.912 
11:20	72.7	72.7	72.7	39	46.3	0	1	292	0.00	29.912 
11:25	72.8	72.8	72.8	41	47.7	0	0	---	0.00	29.912 
11:30	73.0	73.0	73.0	43	49.2	0	1	292	0.00	29.911 
11:35	73.0	73.0	73.0	40	47.2	1	2	292	0.00	29.911 
11:40	73.2	73.2	73.2	38	46.1	0	2	292	0.00	29.911 
11:45	73.7	73.7	73.7	38	46.5	0	1	292	0.00	29.910 
11:50	74.2	74.2	74.2	35	44.8	0	2	292	0.00	29.910 
11:55	75.1	75.1	77.5	40	49.1	0	1	292	0.00	29.910 
12:00	75.6	75.6	77.4	35	46.0	1	4	90	0.00	29.910 
12:05	75.6	75.6	77.2	31	42.8	1	4	90	0.00	29.910 
12:10	75.6	75.6	77.1	30	42.0	1	3	112	0.00	29.910 
12:15	75.4	75.4	77.1	31	42.6	0	3	112	0.00	29.906 
12:20	75.6	75.6	77.4	35	46.0	0	1	112	0.00	29.906 
12:25	75.3	75.3	77.1	31	42.6	0	1	112	0.00	29.906 
12:30	74.9	74.9	74.9	31	42.2	0	1	112	0.00	29.904 
12:35	74.6	74.6	74.6	30	41.1	0	1	112	0.00	29.904 
12:40	74.6	74.6	74.6	31	42.0	0	1	112	0.00	29.904 
12:45	74.7	74.7	74.7	31	42.0	0	2	112	0.00	29.903 
12:50	75.6	75.6	77.3	32	43.6	0	1	112	0.00	29.903 
12:55	76.5	76.5	77.8	35	46.8	0	2	112	0.00	29.903 
13:00	76.8	76.8	77.7	31	43.9	1	4	112	0.00	29.896 
13:05	76.7	76.7	77.6	31	43.8	1	4	112	0.00	29.896 
13:10	76.8	76.8	77.5	29	42.1	1	4	112	0.00	29.896 
13:15	77.7	77.7	78.5	38	50.0	0	1	112	0.00	29.896 
13:20	78.3	78.3	78.3	31	45.2	0	2	112	0.00	29.896 
13:25	78.5	78.5	78.7	35	48.5	1	4	112	0.00	29.896 
13:30	78.5	78.5	78.3	29	43.6	1	3	112	0.00	29.897 
13:35	78.5	78.5	78.2	27	41.7	0	2	112	0.00	29.897 
13:40	78.8	78.8	78.4	28	42.9	0	1	112	0.00	29.897 
13:45	78.8	78.8	78.2	25	40.0	0	1	112	0.00	29.903 
13:50	79.0	79.0	78.4	26	41.2	0	2	112	0.00	29.903 
13:55	79.4	79.4	78.5	24	39.4	0	2	112	0.00	29.903 
14:00	79.8	79.8	78.8	25	40.8	0	2	112	0.00	29.900 
14:05	79.9	79.9	78.9	27	42.9	1	3	112	0.00	29.900 
14:10	79.9	79.9	79.0	28	43.9	1	3	112	0.00	29.900 
14:15	79.8	79.8	78.8	26	41.8	1	3	112	0.00	29.898 
14:20	79.6	79.6	78.7	26	41.7	0	2	112	0.00	29.898 
14:25	79.9	79.9	78.8	25	40.9	1	3	112	0.00	29.898 
14:30	79.9	79.9	78.9	26	41.9	0	3	112	0.00	29.899 
14:35	80.5	80.5	79.4	28	44.4	0	2	112	0.00	29.899 
14:40	80.7	80.7	79.2	24	40.5	1	4	112	0.00	29.899 
14:45	81.1	81.1	79.5	25	41.9	1	3	112	0.00	29.897 
14:50	80.9	80.9	79.6	28	44.7	1	3	112	0.00	29.897 
14:55	80.7	80.7	79.3	25	41.6	1	2	112	0.00	29.897 
15:00	81.1	81.1	79.6	26	42.9	0	2	112	0.00	29.896 
15:05	81.4	81.4	79.9	27	44.2	0	2	112	0.00	29.896 
15:10	82.2	82.2	80.5	28	45.8	0	2	112	0.00	29.896 
15:15	82.8	82.8	80.5	22	40.0	1	3	112	0.00	29.895 
15:20	82.6	82.6	80.5	24	42.1	0	2	112	0.00	29.895 
15:25	82.8	82.8	80.5	22	40.0	1	2	112	0.00	29.895 
15:30	82.4	82.4	80.5	26	44.0	1	2	112	0.00	29.893 
15:35	82.2	82.2	80.1	22	39.5	0	2	112	0.00	29.893 
15:40	82.4	82.4	80.5	26	44.0	0	2	112	0.00	29.893 
15:45	82.6	82.6	80.8	28	46.2	0	2	112	0.00	29.887 
15:50	83.0	83.0	80.9	26	44.6	0	2	112	0.00	29.887 
15:55	83.2	83.2	80.8	22	40.4	0	1	112	0.00	29.887 
16:00	83.0	83.0	80.6	20	37.8	0	2	112	0.00	29.887 
16:05	82.2	82.2	80.0	21	38.4	0	2	112	0.00	29.887 
16:10	82.2	82.2	80.0	21	38.4	0	1	112	0.00	29.887 
16:15	82.4	82.4	80.3	23	40.9	0	1	112	0.00	29.885 
16:20	82.8	82.8	80.4	20	37.6	0	1	112	0.00	29.885 
16:25	83.2	83.2	80.8	22	40.4	1	3	180	0.00	29.885 
16:30	82.6	82.6	80.4	22	39.9	2	5	90	0.00	29.883 
16:35	82.0	82.0	80.0	23	40.5	1	2	90	0.00	29.883 
16:40	82.2	82.2	80.2	24	41.8	0	1	90	0.00	29.883 
16:45	82.2	82.2	80.0	21	38.4	1	3	90	0.00	29.880 
16:50	82.0	82.0	79.9	21	38.2	1	2	90	0.00	29.880 
16:55	82.0	82.0	79.9	20	36.9	1	3	90	0.00	29.880 
17:00	81.6	81.6	79.6	21	37.9	1	3	90	0.00	29.880 
17:05	81.6	81.6	79.8	24	41.3	0	2	90	0.00	29.880 
17:10	81.6	81.6	79.6	20	36.6	1	3	90	0.00	29.880 
17:15	81.8	81.8	79.7	19	35.5	1	3	90	0.00	29.882 
17:20	81.8	81.8	79.7	20	36.8	0	3	90	0.00	29.882 
17:25	81.6	81.6	79.6	19	35.3	1	3	90	0.00	29.882 
17:30	81.6	81.6	79.7	23	40.2	0	2	90	0.00	29.882 
17:35	81.8	81.8	79.7	19	35.5	0	1	90	0.00	29.882 
17:40	82.2	82.2	80.0	19	35.8	0	1	90	0.00	29.882 
17:45	82.6	82.6	80.2	19	36.1	0	1	90	0.00	29.881 
17:50	82.6	82.6	80.4	22	39.9	0	1	90	0.00	29.881 
17:55	82.8	82.8	80.4	19	36.3	0	1	90	0.00	29.881 
18:00	82.6	82.6	80.2	19	36.1	0	2	90	0.00	29.881 
18:05	82.4	82.4	80.1	20	37.3	0	1	90	0.00	29.881 
18:10	81.8	81.8	79.6	18	34.1	0	2	90	0.00	29.881 
18:15	81.4	81.4	79.6	22	38.9	1	3	90	0.00	29.883 
18:20	81.1	81.1	79.3	21	37.4	0	1	90	0.00	29.883 
18:25	80.9	80.9	79.2	22	38.5	0	2	90	0.00	29.883 
18:30	80.7	80.7	79.1	21	37.1	0	2	90	0.00	29.883 
18:35	80.7	80.7	79.1	22	38.3	0	1	90	0.00	29.883 
18:40	80.7	80.7	79.2	23	39.4	0	1	90	0.00	29.883 
18:45	80.5	80.5	78.9	21	37.0	1	3	90	0.00	29.883 
18:50	80.5	80.5	79.1	23	39.3	0	1	90	0.00	29.883 
18:55	80.5	80.5	79.2	25	41.4	0	2	90	0.00	29.883 
19:00	80.3	80.3	78.8	21	36.8	0	1	90	0.00	29.884 
19:05	80.1	80.1	78.7	21	36.6	0	1	90	0.00	29.884 
19:10	80.1	80.1	78.8	22	37.8	0	1	90	0.00	29.884 
19:15	79.9	79.9	78.7	23	38.8	0	0	---	0.00	29.875 
19:20	79.8	79.8	78.6	23	38.7	0	0	---	0.00	29.875 
19:25	79.6	79.6	78.5	22	37.4	0	0	---	0.00	29.875 
19:30	79.4	79.4	78.3	22	37.2	0	0	---	0.00	29.878 
19:35	79.4	79.4	78.4	23	38.4	0	0	---	0.00	29.878 
19:40	79.4	79.4	78.4	23	38.4	0	0	---	0.00	29.878 
19:45	79.2	79.2	78.2	21	35.9	0	1	90	0.00	29.880 
19:50	79.0	79.0	78.1	22	36.9	0	1	90	0.00	29.880 
19:55	79.0	79.0	78.2	23	38.0	0	0	---	0.00	29.880 
20:00	78.8	78.8	78.1	23	37.9	0	0	---	0.00	29.882 
20:05	78.5	78.5	77.9	23	37.6	0	0	---	0.00	29.882 
20:10	78.1	78.1	77.8	25	39.4	0	0	---	0.00	29.882 
20:15	77.7	77.7	77.7	26	40.1	0	0	---	0.00	29.879 
20:20	77.2	77.2	77.6	27	40.6	0	0	---	0.00	29.879 
20:25	76.7	76.7	77.3	27	40.2	0	0	---	0.00	29.879 
20:30	76.0	76.0	77.3	30	42.3	0	0	---	0.00	29.886 
20:35	75.4	75.4	77.1	30	41.8	0	0	---	0.00	29.886 
20:40	74.9	74.9	74.9	31	42.2	0	0	---	0.00	29.886 
20:45	74.2	74.2	74.2	34	44.0	0	0	---	0.00	29.892 
20:50	73.5	73.5	73.5	35	44.2	0	0	---	0.00	29.892 
20:55	72.8	72.8	72.8	35	43.5	0	0	---	0.00	29.892 
21:00	72.1	72.1	72.1	37	44.4	0	0	---	0.00	29.896 
21:05	71.6	71.6	71.6	38	44.6	0	0	---	0.00	29.896 
21:10	70.9	70.9	70.9	39	44.7	0	0	---	0.00	29.896 
21:15	70.3	70.3	70.3	40	44.8	0	0	---	0.00	29.901 
21:20	69.6	69.6	69.6	43	46.1	0	0	---	0.00	29.901 
21:25	69.1	69.1	69.1	44	46.3	0	0	---	0.00	29.901 
21:30	68.6	68.6	68.6	45	46.4	0	0	---	0.00	29.909 
21:35	68.3	68.3	68.3	46	46.7	0	0	---	0.00	29.909 
21:40	67.8	67.8	67.8	45	45.7	0	0	---	0.00	29.909 
21:45	67.4	67.4	67.4	45	45.3	0	0	---	0.00	29.907 
21:50	67.1	67.1	67.1	45	45.0	0	0	---	0.00	29.907 
21:55	66.6	66.6	66.6	45	44.6	0	0	---	0.00	29.907 
22:00	66.1	66.1	66.1	47	45.3	0	0	---	0.00	29.913 
22:05	65.8	65.8	65.8	48	45.6	0	0	---	0.00	29.913 
22:10	65.3	65.3	65.3	48	45.1	0	0	---	0.00	29.913 
22:15	64.8	64.8	64.8	49	45.2	0	0	---	0.00	29.919 
22:20	64.5	64.5	64.5	50	45.4	0	0	---	0.00	29.919 
22:25	64.0	64.0	64.0	51	45.5	0	0	---	0.00	29.919 
22:30	63.7	63.7	63.7	51	45.2	0	0	---	0.00	29.928 
22:35	63.4	63.4	63.4	53	46.0	0	0	---	0.00	29.928 
22:40	63.1	63.1	63.1	54	46.2	0	0	---	0.00	29.928 
22:45	62.7	62.7	62.7	55	46.3	0	0	---	0.00	29.932 
22:50	62.6	62.6	62.6	55	46.2	0	0	---	0.00	29.932 
22:55	62.4	62.4	62.4	55	46.0	0	0	---	0.00	29.932 
23:00	62.1	62.1	62.1	56	46.2	0	0	---	0.00	29.935 
23:05	62.1	62.1	62.1	58	47.1	0	2	90	0.00	29.935 
23:10	62.1	62.1	62.1	58	47.1	0	0	---	0.00	29.935 
23:15	62.0	62.0	62.0	58	47.0	0	0	---	0.00	29.941 
23:20	61.8	61.8	61.8	57	46.4	0	0	---	0.00	29.941 
23:25	61.8	61.8	61.8	58	46.9	0	0	---	0.00	29.941 
23:30	61.8	61.8	61.8	58	46.9	0	0	---	0.00	29.943 
23:35	61.6	61.6	61.6	58	46.7	0	0	---	0.00	29.943 
23:40	61.5	61.5	61.5	58	46.6	0	0	---	0.00	29.943 
23:45	61.3	61.3	61.3	59	46.8	0	0	---	0.00	29.946 
23:50	61.0	61.0	61.0	59	46.6	0	0	---	0.00	29.946 
23:55	60.9	60.9	60.9	60	46.9	0	0	---	0.00	29.946 

CoCoRaHS
IN-AL-39
A2 Web Hosting
Creative Commons License
GoDaddy
search engine by freefind advanced

loaded 2018-11-20 07:21:58 • last modified 2010-11-18 10:43:29
Privacy PolicyDisclaimer
• wx.awcolley.com is powered by PmWiki v.2002016 •
• all content (unless otherwise noted) © 2018 A W Colley